FFX weather

Fremont Municipal Airport
Fremont, Michigan, United States

Public forecast

Using degrees Fahrenheit for public forecast. Weather courtesy of forecast.io.

METAR (pilot weather report)

Retrieved 2019/07/21 01:38 UTC (1 minute ago):

KFFX 210138Z AUTO 32008KT 10SM OVC005 22/22 A2986 RMK AO2 T02150215

TAF (pilot weather forecast)

Forecast is more than 12 hours old.

Closest forecast is Muskegon County Airport, 19.4 nm (35.9 km) SSW. Retrieved 2019/07/20 00:42 UTC (1 day ago):

TAF KMKG 202340Z 2100/2124 30005KT P6SM OVC090 FM210600 36005KT P6SM BKN035 FM211200 VRB03KT P6SM SCT015